sensor_id;sensor_type;location;lat;lon;timestamp;temperature;humidity
44182;DHT22;30436;48.888;9.202;2022-07-06T00:01:22;23.50;64.00
44182;DHT22;30436;48.888;9.202;2022-07-06T00:03:48;23.40;66.80
44182;DHT22;30436;48.888;9.202;2022-07-06T00:06:14;23.50;65.00
44182;DHT22;30436;48.888;9.202;2022-07-06T00:08:42;23.40;64.20
44182;DHT22;30436;48.888;9.202;2022-07-06T00:11:07;23.40;64.20
44182;DHT22;30436;48.888;9.202;2022-07-06T00:13:33;23.20;65.20
44182;DHT22;30436;48.888;9.202;2022-07-06T00:15:59;23.20;63.70
44182;DHT22;30436;48.888;9.202;2022-07-06T00:18:24;23.10;65.80
44182;DHT22;30436;48.888;9.202;2022-07-06T00:20:50;23.10;65.80
44182;DHT22;30436;48.888;9.202;2022-07-06T00:23:16;23.10;65.90
44182;DHT22;30436;48.888;9.202;2022-07-06T00:25:41;23.10;65.40
44182;DHT22;30436;48.888;9.202;2022-07-06T00:28:07;23.00;67.20
44182;DHT22;30436;48.888;9.202;2022-07-06T00:30:33;23.00;66.10
44182;DHT22;30436;48.888;9.202;2022-07-06T00:32:58;23.00;66.50
44182;DHT22;30436;48.888;9.202;2022-07-06T00:35:25;23.00;68.20
44182;DHT22;30436;48.888;9.202;2022-07-06T00:37:51;22.90;66.10
44182;DHT22;30436;48.888;9.202;2022-07-06T00:40:17;23.00;67.60
44182;DHT22;30436;48.888;9.202;2022-07-06T00:42:45;22.90;66.80
44182;DHT22;30436;48.888;9.202;2022-07-06T00:45:12;22.80;66.00
44182;DHT22;30436;48.888;9.202;2022-07-06T00:47:39;22.90;66.10
44182;DHT22;30436;48.888;9.202;2022-07-06T00:50:07;22.70;66.20
44182;DHT22;30436;48.888;9.202;2022-07-06T00:52:44;22.60;66.20
44182;DHT22;30436;48.888;9.202;2022-07-06T00:55:10;22.60;66.50
44182;DHT22;30436;48.888;9.202;2022-07-06T00:57:37;22.70;66.70
44182;DHT22;30436;48.888;9.202;2022-07-06T01:00:09;22.70;66.70
44182;DHT22;30436;48.888;9.202;2022-07-06T01:02:36;22.70;67.20
44182;DHT22;30436;48.888;9.202;2022-07-06T01:05:04;22.70;66.70
44182;DHT22;30436;48.888;9.202;2022-07-06T01:07:30;22.60;67.40
44182;DHT22;30436;48.888;9.202;2022-07-06T01:09:57;22.80;67.40
44182;DHT22;30436;48.888;9.202;2022-07-06T01:12:23;22.60;65.90
44182;DHT22;30436;48.888;9.202;2022-07-06T01:14:49;22.50;65.40
44182;DHT22;30436;48.888;9.202;2022-07-06T01:17:16;22.60;68.00
44182;DHT22;30436;48.888;9.202;2022-07-06T01:19:43;22.60;67.10
44182;DHT22;30436;48.888;9.202;2022-07-06T01:22:10;22.60;67.40
44182;DHT22;30436;48.888;9.202;2022-07-06T01:24:37;22.60;68.00
44182;DHT22;30436;48.888;9.202;2022-07-06T01:27:07;22.40;67.40
44182;DHT22;30436;48.888;9.202;2022-07-06T01:29:33;22.40;69.20
44182;DHT22;30436;48.888;9.202;2022-07-06T01:32:00;22.40;68.80
44182;DHT22;30436;48.888;9.202;2022-07-06T01:34:26;22.30;68.10
44182;DHT22;30436;48.888;9.202;2022-07-06T01:36:53;22.20;68.60
44182;DHT22;30436;48.888;9.202;2022-07-06T01:39:19;22.20;68.50
44182;DHT22;30436;48.888;9.202;2022-07-06T01:41:44;22.20;69.60
44182;DHT22;30436;48.888;9.202;2022-07-06T01:44:10;22.20;68.20
44182;DHT22;30436;48.888;9.202;2022-07-06T01:46:37;22.20;68.30
44182;DHT22;30436;48.888;9.202;2022-07-06T01:49:04;22.10;67.10
44182;DHT22;30436;48.888;9.202;2022-07-06T01:51:30;22.10;67.80
44182;DHT22;30436;48.888;9.202;2022-07-06T01:53:58;22.00;68.90
44182;DHT22;30436;48.888;9.202;2022-07-06T01:56:24;21.90;67.80
44182;DHT22;30436;48.888;9.202;2022-07-06T01:58:53;21.90;68.00
44182;DHT22;30436;48.888;9.202;2022-07-06T02:01:21;21.80;68.00
44182;DHT22;30436;48.888;9.202;2022-07-06T02:03:47;21.80;69.40
44182;DHT22;30436;48.888;9.202;2022-07-06T02:06:13;21.70;67.80
44182;DHT22;30436;48.888;9.202;2022-07-06T02:08:41;21.60;68.80
44182;DHT22;30436;48.888;9.202;2022-07-06T02:11:07;21.60;69.90
44182;DHT22;30436;48.888;9.202;2022-07-06T02:13:36;21.70;70.30
44182;DHT22;30436;48.888;9.202;2022-07-06T02:16:04;21.60;69.40
44182;DHT22;30436;48.888;9.202;2022-07-06T02:18:30;21.60;69.20
44182;DHT22;30436;48.888;9.202;2022-07-06T02:20:56;21.60;69.70
44182;DHT22;30436;48.888;9.202;2022-07-06T02:23:22;21.50;68.50
44182;DHT22;30436;48.888;9.202;2022-07-06T02:25:49;21.40;70.40
44182;DHT22;30436;48.888;9.202;2022-07-06T02:28:15;21.40;70.60
44182;DHT22;30436;48.888;9.202;2022-07-06T02:30:41;21.40;70.10
44182;DHT22;30436;48.888;9.202;2022-07-06T02:33:06;21.40;69.50
44182;DHT22;30436;48.888;9.202;2022-07-06T02:35:33;21.40;69.10
44182;DHT22;30436;48.888;9.202;2022-07-06T02:37:59;21.40;71.40
44182;DHT22;30436;48.888;9.202;2022-07-06T02:40:25;21.30;69.20
44182;DHT22;30436;48.888;9.202;2022-07-06T02:42:51;21.10;70.10
44182;DHT22;30436;48.888;9.202;2022-07-06T02:45:17;21.20;69.60
44182;DHT22;30436;48.888;9.202;2022-07-06T02:47:43;21.10;70.00
44182;DHT22;30436;48.888;9.202;2022-07-06T02:50:09;21.10;70.50
44182;DHT22;30436;48.888;9.202;2022-07-06T02:52:35;21.20;71.30
44182;DHT22;30436;48.888;9.202;2022-07-06T02:55:02;21.10;71.30
44182;DHT22;30436;48.888;9.202;2022-07-06T02:57:28;21.10;72.60
44182;DHT22;30436;48.888;9.202;2022-07-06T02:59:53;21.10;70.20
44182;DHT22;30436;48.888;9.202;2022-07-06T03:02:19;21.10;71.30
44182;DHT22;30436;48.888;9.202;2022-07-06T03:04:46;21.00;71.60
44182;DHT22;30436;48.888;9.202;2022-07-06T03:07:12;20.80;70.40
44182;DHT22;30436;48.888;9.202;2022-07-06T03:09:38;20.90;72.50
44182;DHT22;30436;48.888;9.202;2022-07-06T03:12:04;20.90;72.70
44182;DHT22;30436;48.888;9.202;2022-07-06T03:14:32;20.80;71.40
44182;DHT22;30436;48.888;9.202;2022-07-06T03:16:58;20.80;72.10
44182;DHT22;30436;48.888;9.202;2022-07-06T03:19:24;20.80;71.70
44182;DHT22;30436;48.888;9.202;2022-07-06T03:21:50;20.80;72.00
44182;DHT22;30436;48.888;9.202;2022-07-06T03:24:16;20.80;72.00
44182;DHT22;30436;48.888;9.202;2022-07-06T03:26:42;20.80;73.70
44182;DHT22;30436;48.888;9.202;2022-07-06T03:29:08;20.80;72.80
44182;DHT22;30436;48.888;9.202;2022-07-06T03:31:34;20.80;72.00
44182;DHT22;30436;48.888;9.202;2022-07-06T03:34:00;20.80;72.10
44182;DHT22;30436;48.888;9.202;2022-07-06T03:36:28;20.80;73.00
44182;DHT22;30436;48.888;9.202;2022-07-06T03:38:54;21.00;72.40
44182;DHT22;30436;48.888;9.202;2022-07-06T03:41:21;20.80;72.60
44182;DHT22;30436;48.888;9.202;2022-07-06T03:43:47;20.80;72.10
44182;DHT22;30436;48.888;9.202;2022-07-06T03:46:12;20.90;72.30
44182;DHT22;30436;48.888;9.202;2022-07-06T03:48:38;20.90;72.10
44182;DHT22;30436;48.888;9.202;2022-07-06T03:51:05;20.80;73.70
44182;DHT22;30436;48.888;9.202;2022-07-06T03:53:31;20.70;74.20
44182;DHT22;30436;48.888;9.202;2022-07-06T03:55:57;20.70;72.90
44182;DHT22;30436;48.888;9.202;2022-07-06T03:58:42;20.60;73.30
44182;DHT22;30436;48.888;9.202;2022-07-06T04:01:08;20.60;73.60
44182;DHT22;30436;48.888;9.202;2022-07-06T04:03:33;20.50;73.80
44182;DHT22;30436;48.888;9.202;2022-07-06T04:05:59;20.60;75.30
44182;DHT22;30436;48.888;9.202;2022-07-06T04:08:25;20.60;74.90
44182;DHT22;30436;48.888;9.202;2022-07-06T04:10:55;20.60;74.60
44182;DHT22;30436;48.888;9.202;2022-07-06T04:13:21;20.50;74.30
44182;DHT22;30436;48.888;9.202;2022-07-06T04:15:48;20.40;75.60
44182;DHT22;30436;48.888;9.202;2022-07-06T04:18:14;20.50;75.80
44182;DHT22;30436;48.888;9.202;2022-07-06T04:20:46;20.50;75.60
44182;DHT22;30436;48.888;9.202;2022-07-06T04:23:12;20.40;76.70
44182;DHT22;30436;48.888;9.202;2022-07-06T04:25:39;20.40;75.90
44182;DHT22;30436;48.888;9.202;2022-07-06T04:28:05;20.40;75.70
44182;DHT22;30436;48.888;9.202;2022-07-06T04:30:32;20.40;75.40
44182;DHT22;30436;48.888;9.202;2022-07-06T04:33:00;20.30;76.30
44182;DHT22;30436;48.888;9.202;2022-07-06T04:35:28;20.30;77.10
44182;DHT22;30436;48.888;9.202;2022-07-06T04:37:55;20.40;75.40
44182;DHT22;30436;48.888;9.202;2022-07-06T04:40:21;20.40;78.30
44182;DHT22;30436;48.888;9.202;2022-07-06T04:42:51;20.50;76.60
44182;DHT22;30436;48.888;9.202;2022-07-06T04:45:16;20.40;76.70
44182;DHT22;30436;48.888;9.202;2022-07-06T04:47:43;20.30;76.70
44182;DHT22;30436;48.888;9.202;2022-07-06T04:50:10;20.30;78.60
44182;DHT22;30436;48.888;9.202;2022-07-06T04:52:36;20.30;78.40
44182;DHT22;30436;48.888;9.202;2022-07-06T04:55:02;20.20;77.70
44182;DHT22;30436;48.888;9.202;2022-07-06T04:57:30;20.20;78.20
44182;DHT22;30436;48.888;9.202;2022-07-06T04:59:57;20.30;78.40
44182;DHT22;30436;48.888;9.202;2022-07-06T05:02:23;20.20;78.40
44182;DHT22;30436;48.888;9.202;2022-07-06T05:04:50;20.10;79.20
44182;DHT22;30436;48.888;9.202;2022-07-06T05:07:18;20.20;78.80
44182;DHT22;30436;48.888;9.202;2022-07-06T05:09:44;20.20;78.70
44182;DHT22;30436;48.888;9.202;2022-07-06T05:12:10;20.10;78.90
44182;DHT22;30436;48.888;9.202;2022-07-06T05:14:36;20.20;79.40
44182;DHT22;30436;48.888;9.202;2022-07-06T05:17:03;20.30;79.20
44182;DHT22;30436;48.888;9.202;2022-07-06T05:19:29;20.50;78.10
44182;DHT22;30436;48.888;9.202;2022-07-06T05:21:55;20.30;79.20
44182;DHT22;30436;48.888;9.202;2022-07-06T05:24:21;20.30;80.00
44182;DHT22;30436;48.888;9.202;2022-07-06T05:26:47;20.40;79.30
44182;DHT22;30436;48.888;9.202;2022-07-06T05:29:13;20.50;80.50
44182;DHT22;30436;48.888;9.202;2022-07-06T05:31:39;20.70;79.30
44182;DHT22;30436;48.888;9.202;2022-07-06T05:34:05;20.50;78.10
44182;DHT22;30436;48.888;9.202;2022-07-06T05:36:32;20.50;77.20
44182;DHT22;30436;48.888;9.202;2022-07-06T05:38:58;20.50;77.90
44182;DHT22;30436;48.888;9.202;2022-07-06T05:41:24;20.40;78.10
44182;DHT22;30436;48.888;9.202;2022-07-06T05:43:50;20.50;79.70
44182;DHT22;30436;48.888;9.202;2022-07-06T05:46:15;20.60;78.90
44182;DHT22;30436;48.888;9.202;2022-07-06T05:48:41;20.70;77.10
44182;DHT22;30436;48.888;9.202;2022-07-06T05:51:25;20.70;78.50
44182;DHT22;30436;48.888;9.202;2022-07-06T05:53:52;20.80;78.00
44182;DHT22;30436;48.888;9.202;2022-07-06T05:56:19;20.70;78.00
44182;DHT22;30436;48.888;9.202;2022-07-06T05:58:45;20.80;76.80
44182;DHT22;30436;48.888;9.202;2022-07-06T06:01:11;20.90;77.70
44182;DHT22;30436;48.888;9.202;2022-07-06T06:03:39;20.80;77.40
44182;DHT22;30436;48.888;9.202;2022-07-06T06:06:06;20.80;78.50
44182;DHT22;30436;48.888;9.202;2022-07-06T06:08:32;20.90;77.60
44182;DHT22;30436;48.888;9.202;2022-07-06T06:10:59;21.10;76.80
44182;DHT22;30436;48.888;9.202;2022-07-06T06:13:27;21.00;78.20
44182;DHT22;30436;48.888;9.202;2022-07-06T06:15:53;21.10;77.20
44182;DHT22;30436;48.888;9.202;2022-07-06T06:18:18;21.10;77.10
44182;DHT22;30436;48.888;9.202;2022-07-06T06:20:45;21.00;76.90
44182;DHT22;30436;48.888;9.202;2022-07-06T06:23:11;21.10;78.60
44182;DHT22;30436;48.888;9.202;2022-07-06T06:25:38;21.40;75.80
44182;DHT22;30436;48.888;9.202;2022-07-06T06:28:05;21.20;77.20
44182;DHT22;30436;48.888;9.202;2022-07-06T06:30:32;21.20;76.80
44182;DHT22;30436;48.888;9.202;2022-07-06T06:35:34;21.30;77.60
44182;DHT22;30436;48.888;9.202;2022-07-06T06:37:59;21.40;78.10
44182;DHT22;30436;48.888;9.202;2022-07-06T06:40:25;21.20;76.70
44182;DHT22;30436;48.888;9.202;2022-07-06T06:42:51;21.30;76.70
44182;DHT22;30436;48.888;9.202;2022-07-06T06:45:37;21.40;76.70
44182;DHT22;30436;48.888;9.202;2022-07-06T06:48:03;21.40;76.60
44182;DHT22;30436;48.888;9.202;2022-07-06T06:50:29;21.40;77.10
44182;DHT22;30436;48.888;9.202;2022-07-06T06:52:55;21.60;76.40
44182;DHT22;30436;48.888;9.202;2022-07-06T06:55:21;21.70;77.10
44182;DHT22;30436;48.888;9.202;2022-07-06T06:57:47;21.70;77.40
44182;DHT22;30436;48.888;9.202;2022-07-06T07:00:13;21.80;76.50
44182;DHT22;30436;48.888;9.202;2022-07-06T07:02:39;21.90;76.90
44182;DHT22;30436;48.888;9.202;2022-07-06T07:05:05;21.90;77.00
44182;DHT22;30436;48.888;9.202;2022-07-06T07:07:32;22.00;76.40
44182;DHT22;30436;48.888;9.202;2022-07-06T07:09:58;22.00;77.30
44182;DHT22;30436;48.888;9.202;2022-07-06T07:12:24;22.20;77.50
44182;DHT22;30436;48.888;9.202;2022-07-06T07:14:49;22.30;75.40
44182;DHT22;30436;48.888;9.202;2022-07-06T07:17:15;22.20;75.40
44182;DHT22;30436;48.888;9.202;2022-07-06T07:19:41;22.30;76.10
44182;DHT22;30436;48.888;9.202;2022-07-06T07:22:07;22.60;76.00
44182;DHT22;30436;48.888;9.202;2022-07-06T07:24:33;22.60;74.40
44182;DHT22;30436;48.888;9.202;2022-07-06T07:26:58;22.60;75.60
44182;DHT22;30436;48.888;9.202;2022-07-06T07:29:24;22.70;73.80
44182;DHT22;30436;48.888;9.202;2022-07-06T07:31:50;22.80;74.70
44182;DHT22;30436;48.888;9.202;2022-07-06T07:34:15;22.90;73.60
44182;DHT22;30436;48.888;9.202;2022-07-06T07:36:42;22.90;75.10
44182;DHT22;30436;48.888;9.202;2022-07-06T07:39:08;22.90;75.00
44182;DHT22;30436;48.888;9.202;2022-07-06T07:41:33;23.00;74.50
44182;DHT22;30436;48.888;9.202;2022-07-06T07:43:59;23.10;73.00
44182;DHT22;30436;48.888;9.202;2022-07-06T07:46:25;23.00;73.30
44182;DHT22;30436;48.888;9.202;2022-07-06T07:48:51;23.00;73.30
44182;DHT22;30436;48.888;9.202;2022-07-06T07:51:18;23.10;72.10
44182;DHT22;30436;48.888;9.202;2022-07-06T07:53:44;23.10;73.10
44182;DHT22;30436;48.888;9.202;2022-07-06T07:56:10;23.20;71.60
44182;DHT22;30436;48.888;9.202;2022-07-06T07:58:36;23.10;73.20
44182;DHT22;30436;48.888;9.202;2022-07-06T08:01:03;23.10;73.00
44182;DHT22;30436;48.888;9.202;2022-07-06T08:03:30;23.30;73.10
44182;DHT22;30436;48.888;9.202;2022-07-06T08:05:57;23.30;73.80
44182;DHT22;30436;48.888;9.202;2022-07-06T08:08:22;23.50;72.30
44182;DHT22;30436;48.888;9.202;2022-07-06T08:10:48;23.40;72.50
44182;DHT22;30436;48.888;9.202;2022-07-06T08:13:14;23.60;73.80
44182;DHT22;30436;48.888;9.202;2022-07-06T08:15:40;23.70;72.90
44182;DHT22;30436;48.888;9.202;2022-07-06T08:18:07;23.70;71.00
44182;DHT22;30436;48.888;9.202;2022-07-06T08:20:33;23.70;71.60
44182;DHT22;30436;48.888;9.202;2022-07-06T08:22:58;23.80;69.80
44182;DHT22;30436;48.888;9.202;2022-07-06T08:25:24;23.80;72.60
44182;DHT22;30436;48.888;9.202;2022-07-06T08:27:50;23.90;71.20
44182;DHT22;30436;48.888;9.202;2022-07-06T08:30:15;24.10;70.00
44182;DHT22;30436;48.888;9.202;2022-07-06T08:32:42;24.10;70.40
44182;DHT22;30436;48.888;9.202;2022-07-06T08:35:08;24.20;69.90
44182;DHT22;30436;48.888;9.202;2022-07-06T08:37:34;24.20;69.90
44182;DHT22;30436;48.888;9.202;2022-07-06T08:40:00;24.30;70.20
44182;DHT22;30436;48.888;9.202;2022-07-06T08:42:30;24.50;68.30
44182;DHT22;30436;48.888;9.202;2022-07-06T08:44:58;24.40;70.50
44182;DHT22;30436;48.888;9.202;2022-07-06T08:47:27;24.50;70.40
44182;DHT22;30436;48.888;9.202;2022-07-06T08:49:54;24.60;71.80
44182;DHT22;30436;48.888;9.202;2022-07-06T08:52:21;24.70;70.70
44182;DHT22;30436;48.888;9.202;2022-07-06T08:54:47;24.80;68.70
44182;DHT22;30436;48.888;9.202;2022-07-06T08:57:14;25.00;70.70
44182;DHT22;30436;48.888;9.202;2022-07-06T08:59:40;25.00;69.70
44182;DHT22;30436;48.888;9.202;2022-07-06T09:02:06;25.10;69.00
44182;DHT22;30436;48.888;9.202;2022-07-06T09:04:33;25.20;68.70
44182;DHT22;30436;48.888;9.202;2022-07-06T09:06:59;25.30;69.00
44182;DHT22;30436;48.888;9.202;2022-07-06T09:09:25;25.30;69.70
44182;DHT22;30436;48.888;9.202;2022-07-06T09:11:51;25.40;68.90
44182;DHT22;30436;48.888;9.202;2022-07-06T09:14:18;25.60;68.40
44182;DHT22;30436;48.888;9.202;2022-07-06T09:16:45;25.70;66.70
44182;DHT22;30436;48.888;9.202;2022-07-06T09:19:11;25.70;66.30
44182;DHT22;30436;48.888;9.202;2022-07-06T09:21:37;25.80;65.80
44182;DHT22;30436;48.888;9.202;2022-07-06T09:24:12;25.80;64.40
44182;DHT22;30436;48.888;9.202;2022-07-06T09:26:39;25.70;67.60
44182;DHT22;30436;48.888;9.202;2022-07-06T09:29:06;25.80;64.10
44182;DHT22;30436;48.888;9.202;2022-07-06T09:31:33;25.80;65.50
44182;DHT22;30436;48.888;9.202;2022-07-06T09:36:47;26.30;65.50
44182;DHT22;30436;48.888;9.202;2022-07-06T09:39:25;26.50;64.20
44182;DHT22;30436;48.888;9.202;2022-07-06T09:41:53;26.70;63.20
44182;DHT22;30436;48.888;9.202;2022-07-06T09:44:25;26.70;64.10
44182;DHT22;30436;48.888;9.202;2022-07-06T09:46:53;26.80;63.80
44182;DHT22;30436;48.888;9.202;2022-07-06T09:49:20;26.60;64.50
44182;DHT22;30436;48.888;9.202;2022-07-06T09:51:48;26.50;64.40
44182;DHT22;30436;48.888;9.202;2022-07-06T09:54:15;26.70;65.00
44182;DHT22;30436;48.888;9.202;2022-07-06T09:56:43;26.70;62.40
44182;DHT22;30436;48.888;9.202;2022-07-06T09:59:10;26.70;66.10
44182;DHT22;30436;48.888;9.202;2022-07-06T10:01:37;26.90;64.30
44182;DHT22;30436;48.888;9.202;2022-07-06T10:04:05;27.10;62.70
44182;DHT22;30436;48.888;9.202;2022-07-06T10:06:31;27.10;62.20
44182;DHT22;30436;48.888;9.202;2022-07-06T10:08:58;27.30;60.50
44182;DHT22;30436;48.888;9.202;2022-07-06T10:11:24;27.30;60.80
44182;DHT22;30436;48.888;9.202;2022-07-06T10:13:55;27.30;60.80
44182;DHT22;30436;48.888;9.202;2022-07-06T10:16:25;27.40;61.00
44182;DHT22;30436;48.888;9.202;2022-07-06T10:18:51;27.60;62.00
44182;DHT22;30436;48.888;9.202;2022-07-06T10:21:21;27.90;61.30
44182;DHT22;30436;48.888;9.202;2022-07-06T10:23:48;28.10;61.50
44182;DHT22;30436;48.888;9.202;2022-07-06T10:26:16;28.20;59.20
44182;DHT22;30436;48.888;9.202;2022-07-06T10:28:42;28.40;60.50
44182;DHT22;30436;48.888;9.202;2022-07-06T10:31:08;28.70;59.00
44182;DHT22;30436;48.888;9.202;2022-07-06T10:33:35;28.90;57.90
44182;DHT22;30436;48.888;9.202;2022-07-06T10:36:02;28.90;57.00
44182;DHT22;30436;48.888;9.202;2022-07-06T10:38:32;29.20;55.00
44182;DHT22;30436;48.888;9.202;2022-07-06T10:41:03;29.20;57.10
44182;DHT22;30436;48.888;9.202;2022-07-06T10:43:33;29.40;56.50
44182;DHT22;30436;48.888;9.202;2022-07-06T10:45:59;29.60;57.60
44182;DHT22;30436;48.888;9.202;2022-07-06T10:48:25;29.50;55.20
44182;DHT22;30436;48.888;9.202;2022-07-06T10:50:59;29.70;57.60
44182;DHT22;30436;48.888;9.202;2022-07-06T10:53:37;29.90;55.70
44182;DHT22;30436;48.888;9.202;2022-07-06T10:56:08;29.90;55.40
44182;DHT22;30436;48.888;9.202;2022-07-06T11:01:07;30.30;55.60
44182;DHT22;30436;48.888;9.202;2022-07-06T11:06:01;30.70;55.50
44182;DHT22;30436;48.888;9.202;2022-07-06T11:11:26;31.00;54.40
44182;DHT22;30436;48.888;9.202;2022-07-06T11:19:17;30.80;54.10
44182;DHT22;30436;48.888;9.202;2022-07-06T11:24:14;30.90;53.80
44182;DHT22;30436;48.888;9.202;2022-07-06T11:26:41;31.00;54.40
44182;DHT22;30436;48.888;9.202;2022-07-06T11:29:09;30.70;53.70
44182;DHT22;30436;48.888;9.202;2022-07-06T11:31:37;30.60;54.30
44182;DHT22;30436;48.888;9.202;2022-07-06T11:34:05;30.70;54.10
44182;DHT22;30436;48.888;9.202;2022-07-06T11:36:31;30.60;53.70
44182;DHT22;30436;48.888;9.202;2022-07-06T11:38:58;30.40;55.40
44182;DHT22;30436;48.888;9.202;2022-07-06T11:41:24;30.40;55.80
44182;DHT22;30436;48.888;9.202;2022-07-06T11:43:49;30.50;55.10
44182;DHT22;30436;48.888;9.202;2022-07-06T11:46:28;30.40;54.40
44182;DHT22;30436;48.888;9.202;2022-07-06T11:48:58;30.40;55.80
44182;DHT22;30436;48.888;9.202;2022-07-06T11:51:32;30.40;55.10
44182;DHT22;30436;48.888;9.202;2022-07-06T11:54:01;30.20;55.40
44182;DHT22;30436;48.888;9.202;2022-07-06T11:56:28;30.20;55.20
44182;DHT22;30436;48.888;9.202;2022-07-06T11:58:57;30.30;55.70
44182;DHT22;30436;48.888;9.202;2022-07-06T12:01:28;30.20;54.80
44182;DHT22;30436;48.888;9.202;2022-07-06T12:04:00;30.00;55.90
44182;DHT22;30436;48.888;9.202;2022-07-06T12:06:30;30.00;53.90
44182;DHT22;30436;48.888;9.202;2022-07-06T12:08:58;29.70;55.00
44182;DHT22;30436;48.888;9.202;2022-07-06T12:11:34;29.40;54.20
44182;DHT22;30436;48.888;9.202;2022-07-06T12:14:16;29.30;56.40
44182;DHT22;30436;48.888;9.202;2022-07-06T12:16:42;29.20;56.10
44182;DHT22;30436;48.888;9.202;2022-07-06T12:19:08;29.40;55.90
44182;DHT22;30436;48.888;9.202;2022-07-06T12:21:41;29.70;56.60
44182;DHT22;30436;48.888;9.202;2022-07-06T12:24:07;29.80;55.40
44182;DHT22;30436;48.888;9.202;2022-07-06T12:26:40;29.90;55.80
44182;DHT22;30436;48.888;9.202;2022-07-06T12:29:10;29.90;54.60
44182;DHT22;30436;48.888;9.202;2022-07-06T12:31:50;29.60;55.60
44182;DHT22;30436;48.888;9.202;2022-07-06T12:39:15;29.00;55.20
44182;DHT22;30436;48.888;9.202;2022-07-06T12:41:46;28.70;55.80
44182;DHT22;30436;48.888;9.202;2022-07-06T12:44:13;28.50;56.40
44182;DHT22;30436;48.888;9.202;2022-07-06T12:46:42;28.40;56.30
44182;DHT22;30436;48.888;9.202;2022-07-06T12:49:19;28.30;56.30
44182;DHT22;30436;48.888;9.202;2022-07-06T12:52:03;28.10;56.90
44182;DHT22;30436;48.888;9.202;2022-07-06T12:54:46;28.40;57.10
44182;DHT22;30436;48.888;9.202;2022-07-06T12:57:24;28.50;56.80
44182;DHT22;30436;48.888;9.202;2022-07-06T13:02:33;28.70;56.30
44182;DHT22;30436;48.888;9.202;2022-07-06T13:05:04;28.50;56.00
44182;DHT22;30436;48.888;9.202;2022-07-06T13:07:32;28.50;55.60
44182;DHT22;30436;48.888;9.202;2022-07-06T13:10:02;28.70;56.50
44182;DHT22;30436;48.888;9.202;2022-07-06T13:12:28;28.90;56.50
44182;DHT22;30436;48.888;9.202;2022-07-06T13:14:54;28.90;55.20
44182;DHT22;30436;48.888;9.202;2022-07-06T13:17:20;29.00;55.50
44182;DHT22;30436;48.888;9.202;2022-07-06T13:19:46;29.10;55.90
44182;DHT22;30436;48.888;9.202;2022-07-06T13:22:12;29.20;55.10
44182;DHT22;30436;48.888;9.202;2022-07-06T13:24:38;29.20;54.60
44182;DHT22;30436;48.888;9.202;2022-07-06T13:27:04;29.40;54.60
44182;DHT22;30436;48.888;9.202;2022-07-06T13:29:29;29.40;54.80
44182;DHT22;30436;48.888;9.202;2022-07-06T13:31:55;29.40;54.10
44182;DHT22;30436;48.888;9.202;2022-07-06T13:34:21;29.50;54.50
44182;DHT22;30436;48.888;9.202;2022-07-06T13:36:47;29.60;53.80
44182;DHT22;30436;48.888;9.202;2022-07-06T13:39:12;29.50;54.20
44182;DHT22;30436;48.888;9.202;2022-07-06T13:41:38;29.60;55.00
44182;DHT22;30436;48.888;9.202;2022-07-06T13:44:04;29.50;55.00
44182;DHT22;30436;48.888;9.202;2022-07-06T13:46:30;29.50;54.00
44182;DHT22;30436;48.888;9.202;2022-07-06T13:48:57;29.40;53.90
44182;DHT22;30436;48.888;9.202;2022-07-06T13:51:24;29.40;54.30
44182;DHT22;30436;48.888;9.202;2022-07-06T13:53:50;29.30;54.20
44182;DHT22;30436;48.888;9.202;2022-07-06T13:56:17;29.30;54.10
44182;DHT22;30436;48.888;9.202;2022-07-06T13:58:43;29.10;54.10
44182;DHT22;30436;48.888;9.202;2022-07-06T14:01:09;29.00;54.50
44182;DHT22;30436;48.888;9.202;2022-07-06T14:03:35;29.00;54.10
44182;DHT22;30436;48.888;9.202;2022-07-06T14:06:04;28.90;55.70
44182;DHT22;30436;48.888;9.202;2022-07-06T14:08:31;29.00;54.40
44182;DHT22;30436;48.888;9.202;2022-07-06T14:10:57;29.00;54.80
44182;DHT22;30436;48.888;9.202;2022-07-06T14:13:23;29.00;54.40
44182;DHT22;30436;48.888;9.202;2022-07-06T14:15:49;28.90;54.30
44182;DHT22;30436;48.888;9.202;2022-07-06T14:18:15;28.80;53.30
44182;DHT22;30436;48.888;9.202;2022-07-06T14:20:44;28.80;54.20
44182;DHT22;30436;48.888;9.202;2022-07-06T14:23:10;28.70;53.80
44182;DHT22;30436;48.888;9.202;2022-07-06T14:25:37;28.70;54.40
44182;DHT22;30436;48.888;9.202;2022-07-06T14:28:02;28.80;54.00
44182;DHT22;30436;48.888;9.202;2022-07-06T14:30:28;28.50;54.10
44182;DHT22;30436;48.888;9.202;2022-07-06T14:32:55;28.50;54.50
44182;DHT22;30436;48.888;9.202;2022-07-06T14:35:20;28.50;54.20
44182;DHT22;30436;48.888;9.202;2022-07-06T14:37:47;28.40;54.50
44182;DHT22;30436;48.888;9.202;2022-07-06T14:40:13;28.40;54.50
44182;DHT22;30436;48.888;9.202;2022-07-06T14:42:38;28.10;54.30
44182;DHT22;30436;48.888;9.202;2022-07-06T14:45:04;28.10;54.10
44182;DHT22;30436;48.888;9.202;2022-07-06T14:47:30;28.00;54.30
44182;DHT22;30436;48.888;9.202;2022-07-06T14:49:56;28.00;55.30
44182;DHT22;30436;48.888;9.202;2022-07-06T14:52:21;28.00;55.50
44182;DHT22;30436;48.888;9.202;2022-07-06T14:54:47;27.90;54.40
44182;DHT22;30436;48.888;9.202;2022-07-06T14:57:13;27.80;54.20
44182;DHT22;30436;48.888;9.202;2022-07-06T14:59:38;27.60;54.30
44182;DHT22;30436;48.888;9.202;2022-07-06T15:02:04;27.70;55.20
44182;DHT22;30436;48.888;9.202;2022-07-06T15:04:30;27.70;55.40
44182;DHT22;30436;48.888;9.202;2022-07-06T15:06:55;27.80;55.00
44182;DHT22;30436;48.888;9.202;2022-07-06T15:09:22;27.70;54.70
44182;DHT22;30436;48.888;9.202;2022-07-06T15:11:48;27.40;54.60
44182;DHT22;30436;48.888;9.202;2022-07-06T15:14:14;27.50;55.20
44182;DHT22;30436;48.888;9.202;2022-07-06T15:16:42;27.50;54.90
44182;DHT22;30436;48.888;9.202;2022-07-06T15:19:09;27.40;54.80
44182;DHT22;30436;48.888;9.202;2022-07-06T15:21:35;27.40;55.30
44182;DHT22;30436;48.888;9.202;2022-07-06T15:24:01;27.40;55.00
44182;DHT22;30436;48.888;9.202;2022-07-06T15:26:26;27.30;54.30
44182;DHT22;30436;48.888;9.202;2022-07-06T15:28:52;27.20;55.30
44182;DHT22;30436;48.888;9.202;2022-07-06T15:31:18;27.20;54.60
44182;DHT22;30436;48.888;9.202;2022-07-06T15:33:43;27.10;54.60
44182;DHT22;30436;48.888;9.202;2022-07-06T15:36:09;27.10;55.20
44182;DHT22;30436;48.888;9.202;2022-07-06T15:38:36;27.00;55.20
44182;DHT22;30436;48.888;9.202;2022-07-06T15:41:02;26.90;56.00
44182;DHT22;30436;48.888;9.202;2022-07-06T15:43:32;26.90;54.90
44182;DHT22;30436;48.888;9.202;2022-07-06T15:46:03;26.70;55.20
44182;DHT22;30436;48.888;9.202;2022-07-06T15:48:30;26.50;54.80
44182;DHT22;30436;48.888;9.202;2022-07-06T15:50:57;26.60;54.90
44182;DHT22;30436;48.888;9.202;2022-07-06T15:53:23;26.60;54.30
44182;DHT22;30436;48.888;9.202;2022-07-06T15:55:49;26.40;54.70
44182;DHT22;30436;48.888;9.202;2022-07-06T15:58:16;26.40;55.90